Flight Number: AVA1030 Duration: 1:00
Departure: Frankfurt am Main (EDDF) at 00:30 Distance: 153.978 Nm
Arrival: Zurich (LSZH) at 01:30 Equipment: B1900D

Weather Information
Frankfurt / M-Flughafen, Germany (EDDF) 50-03N 008-36E 113M Aug 11, 2022 - 12:20 AM EDT / 2022.08.11 0420 UTC
Wind: from the NE (050 degrees) at 7 MPH (6 KT):0
Visibility: greater than 7 mile(s):0 Temperature: 66 F (19 C) Dew Point: 46 F (8 C) Relative Humidity: 48% Pressure (altimeter): 30.18 in. Hg (1022 hPa)
ob: EDDF 110420Z 05006KT CAVOK 19/08 Q1022 NOSIG cycle: 4
Sunrise: 04:14 Sunset: 18:47 (UTC)

Zurich-Kloten, Switzerland (LSZH) 47-29N 008-32E 432M Aug 11, 2022 - 12:20 AM EDT / 2022.08.11 0420 UTC
Wind: from the N (350 degrees) at 5 MPH (4 KT) (direction variable):0
Visibility: greater than 7 mile(s):0 Temperature: 55 F (13 C) Dew Point: 46 F (8 C) Relative Humidity: 71% Pressure (altimeter): 30.12 in. Hg (1020 hPa)
ob: LSZH 110420Z 35004KT 320V040 CAVOK 13/08 Q1020 NOSIG cycle: 4
Sunrise: 04:21 Sunset: 18:40 (UTC)

TAF:2022/08/11 03:33 TAF LSZH 110225Z 1103/1209 VRB02KT CAVOK TX29/1115Z TN13/1104Z TN13/1204Z BECMG 1106/1109 05008KT PROB30 TEMPO 1112/1117 06012KT BECMG 1117/1120 05005KT BECMG 1121/1123 34003KT BECMG 1206/1209 05008KT

Previous Pireps for this route
Date Flightnr Aircraft Flight time Fuel used Landing rate On time
2016-04-29AVA1030B1900D0.536800Yes
(pireps marked green are flown by you)

Route map